Accueil
METAR-TAF:

METAR-TAF

Aéroports :

Milan, Italie

Aéroport de Milan-Linate

latitude: 45-26N, longitude: 009-17E, altitude: 107 m

Observation

Le bulletin a été fait il y a 41 minutes, à 08:20 UTC
Vent 3 kt de est, variant entre nord-est et sud-est
Température 14°C
Humidité 94%
Pression 1007 hPa
Visibilité 10 km ou plus
Quelques nuages à une hauteur de 1000 ft
Nuages fragmentés à une hauteur de 6000 ft

METAR: LIML 270820Z 09003KT 050V130 9999 FEW010 BKN060 14/13 Q1007 NOSIG

Heure: 11:01 (09:01 UTC)

Prévision

Le bulletin a été fait il y a 4 heures et 1 minutes, à 05:00 UTC
Prévision valable du 27 à 06 UTC au 28 à 06 UTC
Vent 8 kt de est
Visibilité: 5000 m
Nuages fragmentés à une hauteur de 1000 ft
Nuages fragmentés à une hauteur de 3000 ft
pluie
Temporairement
du 27 à 18 UTC au 28 à 03 UTC
orage, pluie

TAF: LIML 270500Z 2706/2806 09008KT 5000 RA BKN010 BKN030 TEMPO 2718/2803 TSRA

Observations et prévisions météorologiques de plus de 4000 aéroports (messages METAR et TAF).

Les stations disponibles sont représentées par des disques jaunes et rouges sur la carte.

Passer la souris dessus pour voir le nom de la station.

Cliquer dessus pour voir les observations et prévisions météorologiques.

Pour changer de carte: cliquez sur les boutons verts avec une croix noire pour zoomer, sur le bouton vert avec un tiret pour effectuer un zoom arrière, ou sur les flèches vertes pour les cartes adjacentes.


METAR-TAF: